PWSweather.com
Personal Weather Stations
Station Observations
K4FB1
Clubhouse Heritage, Lakeland, FL 33812

Clubhouse HeritageLakeland, FL 33812

Lat: 27.969224, Lon: -81.897769

Elevation: 145

Station Type: Davis Vantage Pro2

http://www.ClubhouseWX.com

Latest ConditionsUpdated 6:05:00 PM EDT Monday, Apr 27, 2015
Currently Today's Max Today's Min Today's Average
Temperature 81.4°F27.4°C 90.5°F32.5°C 76.1°F24.5°C 80.5°F26.9°C
Dew Point 69.8°F21.0°C 74.8°F23.8°C 68.9°F20.5°C 72.6°F22.6°C
Winds 6.0 mph NW9.7 kmh NW 9.0 mph NW14.5 kmh NW - 3.9 mph 6.3 kmh
Wind Gusts 12.0 mph19.3 kmh 17.0 mph27.4 kmh - -
Humidity 68% 93% 52% 78%
Pressure 29.80 in1009.1 mb 29.85 in1010.8 mb 29.71 in1006.1 mb -
Hour Temp Dew Point Humidity Winds Wind Gusts Pressure Precip Precip Rate Daily Precip Total
06:05 PM 81.4°F27.4°C 69.8°F21.0°C 68% 6.0 mph NW9.7 kmh NW 12.0 mph19.3 kmh 29.80 in1009.1 mb 0.00 in0.0 mm 0.00 in0.0 mm 0.00 in0.0 mm
06:00 PM 81.4°F27.4°C 69.4°F20.8°C 67% 6.0 mph NW9.7 kmh NW 12.0 mph19.3 kmh 29.80 in1009.1 mb 0.00 in0.0 mm 0.00 in0.0 mm 0.00 in0.0 mm
05:55 PM 81.6°F27.6°C 69.6°F20.9°C 67% 6.0 mph NW9.7 kmh NW 11.0 mph17.7 kmh 29.80 in1009.1 mb 0.00 in0.0 mm 0.00 in0.0 mm 0.00 in0.0 mm
05:50 PM 81.8°F27.7°C 69.3°F20.7°C 66% 6.0 mph NW9.7 kmh NW 12.0 mph19.3 kmh 29.80 in1009.1 mb 0.00 in0.0 mm 0.00 in0.0 mm 0.00 in0.0 mm
05:45 PM 82.0°F27.8°C 69.5°F20.8°C 66% 5.0 mph NW8.0 kmh NW 12.0 mph19.3 kmh 29.81 in1009.5 mb 0.00 in0.0 mm 0.00 in0.0 mm 0.00 in0.0 mm
05:40 PM 82.2°F27.9°C 69.7°F20.9°C 66% 5.0 mph NW8.0 kmh NW 10.0 mph16.1 kmh 29.80 in1009.1 mb 0.00 in0.0 mm 0.00 in0.0 mm 0.00 in0.0 mm
05:35 PM 82.4°F28.0°C 69.4°F20.8°C 65% 5.0 mph NW8.0 kmh NW 10.0 mph16.1 kmh 29.80 in1009.1 mb 0.00 in0.0 mm 0.00 in0.0 mm 0.00 in0.0 mm
05:30 PM 82.6°F28.1°C 69.2°F20.7°C 64% 5.0 mph NW8.0 kmh NW 9.0 mph14.5 kmh 29.79 in1008.8 mb 0.00 in0.0 mm 0.00 in0.0 mm 0.00 in0.0 mm
05:25 PM 82.9°F28.3°C 69.0°F20.6°C 63% 5.0 mph NW8.0 kmh NW 10.0 mph16.1 kmh 29.79 in1008.8 mb 0.00 in0.0 mm 0.00 in0.0 mm 0.00 in0.0 mm
05:20 PM 83.3°F28.5°C 68.9°F20.5°C 62% 5.0 mph NW8.0 kmh NW 10.0 mph16.1 kmh 29.79 in1008.8 mb 0.00 in0.0 mm 0.00 in0.0 mm 0.00 in0.0 mm
05:15 PM 83.7°F28.7°C 69.8°F21.0°C 63% 6.0 mph NW9.7 kmh NW 12.0 mph19.3 kmh 29.79 in1008.8 mb 0.00 in0.0 mm 0.00 in0.0 mm 0.00 in0.0 mm
05:10 PM 83.8°F28.8°C 69.4°F20.8°C 62% 6.0 mph NW9.7 kmh NW 13.0 mph20.9 kmh 29.79 in1008.8 mb 0.00 in0.0 mm 0.00 in0.0 mm 0.00 in0.0 mm
05:05 PM 83.7°F28.7°C 69.3°F20.7°C 62% 6.0 mph NW9.7 kmh NW 13.0 mph20.9 kmh 29.79 in1008.8 mb 0.00 in0.0 mm 0.00 in0.0 mm 0.00 in0.0 mm
05:00 PM 83.6°F28.7°C 69.7°F20.9°C 63% 7.0 mph NW11.3 kmh NW 12.0 mph19.3 kmh 29.79 in1008.8 mb 0.00 in0.0 mm 0.00 in0.0 mm 0.00 in0.0 mm
04:55 PM 83.5°F28.6°C 69.6°F20.9°C 63% 8.0 mph NW12.9 kmh NW 13.0 mph20.9 kmh 29.79 in1008.8 mb 0.00 in0.0 mm 0.00 in0.0 mm 0.00 in0.0 mm
04:50 PM 83.7°F28.7°C 69.8°F21.0°C 63% 7.0 mph NW11.3 kmh NW 13.0 mph20.9 kmh 29.78 in1008.5 mb 0.00 in0.0 mm 0.00 in0.0 mm 0.00 in0.0 mm
04:45 PM 83.6°F28.7°C 70.1°F21.2°C 64% 8.0 mph NW12.9 kmh NW 14.0 mph22.5 kmh 29.78 in1008.5 mb 0.00 in0.0 mm 0.00 in0.0 mm 0.00 in0.0 mm
04:40 PM 84.1°F28.9°C 69.7°F20.9°C 62% 7.0 mph NW11.3 kmh NW 14.0 mph22.5 kmh 29.79 in1008.8 mb 0.00 in0.0 mm 0.00 in0.0 mm 0.00 in0.0 mm
04:35 PM 84.5°F29.2°C 70.0°F21.1°C 62% 7.0 mph NW11.3 kmh NW 15.0 mph24.1 kmh 29.79 in1008.8 mb 0.00 in0.0 mm 0.00 in0.0 mm 0.00 in0.0 mm
04:30 PM 84.5°F29.2°C 70.5°F21.4°C 63% 7.0 mph NW11.3 kmh NW 15.0 mph24.1 kmh 29.79 in1008.8 mb 0.00 in0.0 mm 0.00 in0.0 mm 0.00 in0.0 mm
04:25 PM 84.4°F29.1°C 71.3°F21.8°C 65% 7.0 mph NW11.3 kmh NW 14.0 mph22.5 kmh 29.79 in1008.8 mb 0.00 in0.0 mm 0.00 in0.0 mm 0.00 in0.0 mm
04:20 PM 83.9°F28.8°C 71.3°F21.8°C 66% 7.0 mph NNW11.3 kmh NNW 13.0 mph20.9 kmh 29.79 in1008.8 mb 0.00 in0.0 mm 0.00 in0.0 mm 0.00 in0.0 mm
04:15 PM 83.7°F28.7°C 70.7°F21.5°C 65% 7.0 mph NNW11.3 kmh NNW 15.0 mph24.1 kmh 29.80 in1009.1 mb 0.00 in0.0 mm 0.00 in0.0 mm 0.00 in0.0 mm
04:10 PM 83.7°F28.7°C 70.2°F21.2°C 64% 7.0 mph NNW11.3 kmh NNW 15.0 mph24.1 kmh 29.79 in1008.8 mb 0.00 in0.0 mm 0.00 in0.0 mm 0.00 in0.0 mm
04:05 PM 83.8°F28.8°C 70.8°F21.6°C 65% 8.0 mph NW12.9 kmh NW 15.0 mph24.1 kmh 29.80 in1009.1 mb 0.00 in0.0 mm 0.00 in0.0 mm 0.00 in0.0 mm
04:00 PM 83.9°F28.8°C 70.4°F21.3°C 64% 8.0 mph NW12.9 kmh NW 15.0 mph24.1 kmh 29.80 in1009.1 mb 0.00 in0.0 mm 0.00 in0.0 mm 0.00 in0.0 mm
03:55 PM 84.2°F29.0°C 70.2°F21.2°C 63% 7.0 mph NW11.3 kmh NW 14.0 mph22.5 kmh 29.80 in1009.1 mb 0.00 in0.0 mm 0.00 in0.0 mm 0.00 in0.0 mm
03:50 PM 84.6°F29.2°C 70.6°F21.4°C 63% 6.0 mph NW9.7 kmh NW 13.0 mph20.9 kmh 29.80 in1009.1 mb 0.00 in0.0 mm 0.00 in0.0 mm 0.00 in0.0 mm
03:45 PM 84.8°F29.3°C 70.8°F21.6°C 63% 6.0 mph NW9.7 kmh NW 15.0 mph24.1 kmh 29.80 in1009.1 mb 0.00 in0.0 mm 0.00 in0.0 mm 0.00 in0.0 mm
03:40 PM 85.0°F29.4°C 70.0°F21.1°C 61% 6.0 mph NW9.7 kmh NW 15.0 mph24.1 kmh 29.80 in1009.1 mb 0.00 in0.0 mm 0.00 in0.0 mm 0.00 in0.0 mm
03:35 PM 85.4°F29.7°C 71.4°F21.9°C 63% 7.0 mph NW11.3 kmh NW 13.0 mph20.9 kmh 29.80 in1009.1 mb 0.00 in0.0 mm 0.00 in0.0 mm 0.00 in0.0 mm
03:30 PM 85.6°F29.8°C 71.6°F22.0°C 63% 8.0 mph NW12.9 kmh NW 17.0 mph27.4 kmh 29.80 in1009.1 mb 0.00 in0.0 mm 0.00 in0.0 mm 0.00 in0.0 mm
03:25 PM 86.0°F30.0°C 71.0°F21.7°C 61% 9.0 mph NW14.5 kmh NW 17.0 mph27.4 kmh 29.81 in1009.5 mb 0.00 in0.0 mm 0.00 in0.0 mm 0.00 in0.0 mm
03:20 PM 86.6°F30.3°C 71.1°F21.7°C 60% 8.0 mph NW12.9 kmh NW 16.0 mph25.7 kmh 29.80 in1009.1 mb 0.00 in0.0 mm 0.00 in0.0 mm 0.00 in0.0 mm
03:15 PM 87.3°F30.7°C 71.7°F22.1°C 60% 7.0 mph NW11.3 kmh NW 16.0 mph25.7 kmh 29.80 in1009.1 mb 0.00 in0.0 mm 0.00 in0.0 mm 0.00 in0.0 mm
03:10 PM 87.6°F30.9°C 72.5°F22.5°C 61% 8.0 mph NW12.9 kmh NW 13.0 mph20.9 kmh 29.80 in1009.1 mb 0.00 in0.0 mm 0.00 in0.0 mm 0.00 in0.0 mm
03:05 PM 87.8°F31.0°C 71.7°F22.1°C 59% 8.0 mph NW12.9 kmh NW 16.0 mph25.7 kmh 29.80 in1009.1 mb 0.00 in0.0 mm 0.00 in0.0 mm 0.00 in0.0 mm
03:00 PM 88.3°F31.3°C 71.6°F22.0°C 58% 7.0 mph NW11.3 kmh NW 16.0 mph25.7 kmh 29.80 in1009.1 mb 0.00 in0.0 mm 0.00 in0.0 mm 0.00 in0.0 mm
02:55 PM 89.2°F31.8°C 71.5°F21.9°C 56% 6.0 mph NW9.7 kmh NW 15.0 mph24.1 kmh 29.80 in1009.1 mb 0.00 in0.0 mm 0.00 in0.0 mm 0.00 in0.0 mm
02:50 PM 89.5°F31.9°C 72.8°F22.7°C 58% 6.0 mph WNW9.7 kmh WNW 12.0 mph19.3 kmh 29.80 in1009.1 mb 0.00 in0.0 mm 0.00 in0.0 mm 0.00 in0.0 mm
02:45 PM 89.2°F31.8°C 72.5°F22.5°C 58% 6.0 mph WNW9.7 kmh WNW 12.0 mph19.3 kmh 29.80 in1009.1 mb 0.00 in0.0 mm 0.00 in0.0 mm 0.00 in0.0 mm
02:40 PM 88.9°F31.6°C 71.7°F22.1°C 57% 6.0 mph NW9.7 kmh NW 12.0 mph19.3 kmh 29.80 in1009.1 mb 0.00 in0.0 mm 0.00 in0.0 mm 0.00 in0.0 mm
02:35 PM 88.7°F31.5°C 71.5°F21.9°C 57% 7.0 mph NW11.3 kmh NW 12.0 mph19.3 kmh 29.79 in1008.8 mb 0.00 in0.0 mm 0.00 in0.0 mm 0.00 in0.0 mm
02:30 PM 88.9°F31.6°C 71.7°F22.1°C 57% 7.0 mph NW11.3 kmh NW 12.0 mph19.3 kmh 29.79 in1008.8 mb 0.00 in0.0 mm 0.00 in0.0 mm 0.00 in0.0 mm
02:25 PM 89.6°F32.0°C 70.8°F21.6°C 54% 6.0 mph W9.7 kmh W 11.0 mph17.7 kmh 29.79 in1008.8 mb 0.00 in0.0 mm 0.00 in0.0 mm 0.00 in0.0 mm
02:20 PM 89.9°F32.2°C 70.5°F21.4°C 53% 5.0 mph W8.0 kmh W 11.0 mph17.7 kmh 29.79 in1008.8 mb 0.00 in0.0 mm 0.00 in0.0 mm 0.00 in0.0 mm
02:15 PM 90.5°F32.5°C 71.0°F21.7°C 53% 5.0 mph W8.0 kmh W 11.0 mph17.7 kmh 29.79 in1008.8 mb 0.00 in0.0 mm 0.00 in0.0 mm 0.00 in0.0 mm
02:10 PM 90.4°F32.4°C 71.5°F21.9°C 54% 5.0 mph NW8.0 kmh NW 11.0 mph17.7 kmh 29.79 in1008.8 mb 0.00 in0.0 mm 0.00 in0.0 mm 0.00 in0.0 mm
02:05 PM 90.1°F32.3°C 72.3°F22.4°C 56% 4.0 mph NW6.4 kmh NW 9.0 mph14.5 kmh 29.78 in1008.5 mb 0.00 in0.0 mm 0.00 in0.0 mm 0.00 in0.0 mm
02:00 PM 90.3°F32.4°C 70.8°F21.6°C 53% 3.0 mph NW4.8 kmh NW 9.0 mph14.5 kmh 29.77 in1008.1 mb 0.00 in0.0 mm 0.00 in0.0 mm 0.00 in0.0 mm
01:55 PM 90.4°F32.4°C 70.4°F21.3°C 52% 3.0 mph NW4.8 kmh NW 7.0 mph11.3 kmh 29.77 in1008.1 mb 0.00 in0.0 mm 0.00 in0.0 mm 0.00 in0.0 mm
01:50 PM 90.2°F32.3°C 71.3°F21.8°C 54% 4.0 mph W6.4 kmh W 8.0 mph12.9 kmh 29.78 in1008.5 mb 0.00 in0.0 mm 0.00 in0.0 mm 0.00 in0.0 mm
01:45 PM 89.3°F31.8°C 71.5°F21.9°C 56% 6.0 mph WNW9.7 kmh WNW 10.0 mph16.1 kmh 29.78 in1008.5 mb 0.00 in0.0 mm 0.00 in0.0 mm 0.00 in0.0 mm
01:40 PM 88.9°F31.6°C 71.2°F21.8°C 56% 6.0 mph NW9.7 kmh NW 10.0 mph16.1 kmh 29.78 in1008.5 mb 0.00 in0.0 mm 0.00 in0.0 mm 0.00 in0.0 mm
01:35 PM 88.6°F31.4°C 71.4°F21.9°C 57% 6.0 mph NW9.7 kmh NW 11.0 mph17.7 kmh 29.78 in1008.5 mb 0.00 in0.0 mm 0.00 in0.0 mm 0.00 in0.0 mm
01:30 PM 88.5°F31.4°C 70.3°F21.3°C 55% 6.0 mph NW9.7 kmh NW 11.0 mph17.7 kmh 29.78 in1008.5 mb 0.00 in0.0 mm 0.00 in0.0 mm 0.00 in0.0 mm
01:25 PM 88.2°F31.2°C 71.0°F21.7°C 57% 5.0 mph NW8.0 kmh NW 10.0 mph16.1 kmh 29.78 in1008.5 mb 0.00 in0.0 mm 0.00 in0.0 mm 0.00 in0.0 mm
01:20 PM 87.8°F31.0°C 71.7°F22.1°C 59% 5.0 mph W8.0 kmh W 10.0 mph16.1 kmh 29.79 in1008.8 mb 0.00 in0.0 mm 0.00 in0.0 mm 0.00 in0.0 mm
01:15 PM 87.4°F30.8°C 71.8°F22.1°C 60% 4.0 mph W6.4 kmh W 8.0 mph12.9 kmh 29.79 in1008.8 mb 0.00 in0.0 mm 0.00 in0.0 mm 0.00 in0.0 mm
01:10 PM 86.8°F30.4°C 73.6°F23.1°C 65% 4.0 mph WNW6.4 kmh WNW 9.0 mph14.5 kmh 29.79 in1008.8 mb 0.00 in0.0 mm 0.00 in0.0 mm 0.00 in0.0 mm
01:05 PM 86.2°F30.1°C 71.6°F22.0°C 62% 4.0 mph WNW6.4 kmh WNW 9.0 mph14.5 kmh 29.79 in1008.8 mb 0.00 in0.0 mm 0.00 in0.0 mm 0.00 in0.0 mm
01:00 PM 86.1°F30.1°C 71.6°F22.0°C 62% 4.0 mph W6.4 kmh W 8.0 mph12.9 kmh 29.79 in1008.8 mb 0.00 in0.0 mm 0.00 in0.0 mm 0.00 in0.0 mm
12:55 PM 85.9°F29.9°C 72.8°F22.7°C 65% 3.0 mph W4.8 kmh W 8.0 mph12.9 kmh 29.79 in1008.8 mb 0.00 in0.0 mm 0.00 in0.0 mm 0.00 in0.0 mm
12:50 PM 85.7°F29.8°C 72.6°F22.6°C 65% 4.0 mph W6.4 kmh W 9.0 mph14.5 kmh 29.79 in1008.8 mb 0.00 in0.0 mm 0.00 in0.0 mm 0.00 in0.0 mm
12:45 PM 85.6°F29.8°C 72.0°F22.2°C 64% 4.0 mph W6.4 kmh W 9.0 mph14.5 kmh 29.79 in1008.8 mb 0.00 in0.0 mm 0.00 in0.0 mm 0.00 in0.0 mm
12:40 PM 85.5°F29.7°C 72.4°F22.4°C 65% 5.0 mph W8.0 kmh W 9.0 mph14.5 kmh 29.79 in1008.8 mb 0.00 in0.0 mm 0.00 in0.0 mm 0.00 in0.0 mm
12:35 PM 85.3°F29.6°C 71.7°F22.1°C 64% 4.0 mph W6.4 kmh W 9.0 mph14.5 kmh 29.80 in1009.1 mb 0.00 in0.0 mm 0.00 in0.0 mm 0.00 in0.0 mm
12:30 PM 85.0°F29.4°C 72.8°F22.7°C 67% 3.0 mph WSW4.8 kmh WSW 9.0 mph14.5 kmh 29.80 in1009.1 mb 0.00 in0.0 mm 0.00 in0.0 mm 0.00 in0.0 mm
12:25 PM 84.8°F29.3°C 71.7°F22.1°C 65% 3.0 mph WSW4.8 kmh WSW 10.0 mph16.1 kmh 29.80 in1009.1 mb 0.00 in0.0 mm 0.00 in0.0 mm 0.00 in0.0 mm
12:20 PM 84.7°F29.3°C 72.1°F22.3°C 66% 3.0 mph WSW4.8 kmh WSW 10.0 mph16.1 kmh 29.80 in1009.1 mb 0.00 in0.0 mm 0.00 in0.0 mm 0.00 in0.0 mm
12:15 PM 84.4°F29.1°C 72.7°F22.6°C 68% 3.0 mph WSW4.8 kmh WSW 7.0 mph11.3 kmh 29.80 in1009.1 mb 0.00 in0.0 mm 0.00 in0.0 mm 0.00 in0.0 mm
12:10 PM 84.1°F28.9°C 72.4°F22.4°C 68% 3.0 mph SW4.8 kmh SW 7.0 mph11.3 kmh 29.80 in1009.1 mb 0.00 in0.0 mm 0.00 in0.0 mm 0.00 in0.0 mm
12:05 PM 83.8°F28.8°C 72.5°F22.5°C 69% 2.0 mph SW3.2 kmh SW 8.0 mph12.9 kmh 29.80 in1009.1 mb 0.00 in0.0 mm 0.00 in0.0 mm 0.00 in0.0 mm
12:00 PM 83.5°F28.6°C 71.8°F22.1°C 68% 3.0 mph SW4.8 kmh SW 8.0 mph12.9 kmh 29.80 in1009.1 mb 0.00 in0.0 mm 0.00 in0.0 mm 0.00 in0.0 mm
11:55 AM 83.1°F28.4°C 72.3°F22.4°C 70% 3.0 mph WSW4.8 kmh WSW 6.0 mph9.7 kmh 29.80 in1009.1 mb 0.00 in0.0 mm 0.00 in0.0 mm 0.00 in0.0 mm
11:50 AM 82.7°F28.2°C 71.9°F22.2°C 70% 4.0 mph W6.4 kmh W 8.0 mph12.9 kmh 29.80 in1009.1 mb 0.00 in0.0 mm 0.00 in0.0 mm 0.00 in0.0 mm
11:45 AM 82.6°F28.1°C 71.0°F21.7°C 68% 5.0 mph W8.0 kmh W 8.0 mph12.9 kmh 29.80 in1009.1 mb 0.00 in0.0 mm 0.00 in0.0 mm 0.00 in0.0 mm
11:40 AM 82.5°F28.1°C 71.3°F21.8°C 69% 3.0 mph W4.8 kmh W 8.0 mph12.9 kmh 29.80 in1009.1 mb 0.00 in0.0 mm 0.00 in0.0 mm 0.00 in0.0 mm
11:35 AM 82.3°F27.9°C 71.5°F21.9°C 70% 2.0 mph WNW3.2 kmh WNW 5.0 mph8.0 kmh 29.80 in1009.1 mb 0.00 in0.0 mm 0.00 in0.0 mm 0.00 in0.0 mm
11:30 AM 81.9°F27.7°C 71.6°F22.0°C 71% 3.0 mph WNW4.8 kmh WNW 6.0 mph9.7 kmh 29.80 in1009.1 mb 0.00 in0.0 mm 0.00 in0.0 mm 0.00 in0.0 mm
11:25 AM 81.6°F27.6°C 70.9°F21.6°C 70% 4.0 mph NW6.4 kmh NW 7.0 mph11.3 kmh 29.81 in1009.5 mb 0.00 in0.0 mm 0.00 in0.0 mm 0.00 in0.0 mm
11:20 AM 81.7°F27.6°C 70.5°F21.4°C 69% 4.0 mph NW6.4 kmh NW 8.0 mph12.9 kmh 29.81 in1009.5 mb 0.00 in0.0 mm 0.00 in0.0 mm 0.00 in0.0 mm
11:15 AM 81.7°F27.6°C 71.0°F21.7°C 70% 4.0 mph WNW6.4 kmh WNW 10.0 mph16.1 kmh 29.81 in1009.5 mb 0.00 in0.0 mm 0.00 in0.0 mm 0.00 in0.0 mm
11:10 AM 81.6°F27.6°C 70.9°F21.6°C 70% 4.0 mph W6.4 kmh W 10.0 mph16.1 kmh 29.81 in1009.5 mb 0.00 in0.0 mm 0.00 in0.0 mm 0.00 in0.0 mm
11:05 AM 81.5°F27.5°C 70.3°F21.3°C 69% 5.0 mph WNW8.0 kmh WNW 10.0 mph16.1 kmh 29.82 in1009.8 mb 0.00 in0.0 mm 0.00 in0.0 mm 0.00 in0.0 mm
11:00 AM 81.2°F27.3°C 70.5°F21.4°C 70% 6.0 mph NW9.7 kmh NW 12.0 mph19.3 kmh 29.82 in1009.8 mb 0.00 in0.0 mm 0.00 in0.0 mm 0.00 in0.0 mm
10:55 AM 81.1°F27.3°C 70.0°F21.1°C 69% 6.0 mph NW9.7 kmh NW 14.0 mph22.5 kmh 29.82 in1009.8 mb 0.00 in0.0 mm 0.00 in0.0 mm 0.00 in0.0 mm
10:50 AM 81.1°F27.3°C 70.4°F21.3°C 70% 6.0 mph WNW9.7 kmh WNW 14.0 mph22.5 kmh 29.82 in1009.8 mb 0.00 in0.0 mm 0.00 in0.0 mm 0.00 in0.0 mm
10:45 AM 81.3°F27.4°C 70.2°F21.2°C 69% 6.0 mph W9.7 kmh W 14.0 mph22.5 kmh 29.83 in1010.2 mb 0.00 in0.0 mm 0.00 in0.0 mm 0.00 in0.0 mm
10:40 AM 81.3°F27.4°C 70.6°F21.4°C 70% 6.0 mph W9.7 kmh W 12.0 mph19.3 kmh 29.84 in1010.5 mb 0.00 in0.0 mm 0.00 in0.0 mm 0.00 in0.0 mm
10:35 AM 81.2°F27.3°C 70.9°F21.6°C 71% 6.0 mph WNW9.7 kmh WNW 14.0 mph22.5 kmh 29.84 in1010.5 mb 0.00 in0.0 mm 0.00 in0.0 mm 0.00 in0.0 mm
10:30 AM 81.0°F27.2°C 70.7°F21.5°C 71% 8.0 mph NW12.9 kmh NW 14.0 mph22.5 kmh 29.84 in1010.5 mb 0.00 in0.0 mm 0.00 in0.0 mm 0.00 in0.0 mm
10:25 AM 81.0°F27.2°C 70.3°F21.3°C 70% 8.0 mph NW12.9 kmh NW 15.0 mph24.1 kmh 29.84 in1010.5 mb 0.00 in0.0 mm 0.00 in0.0 mm 0.00 in0.0 mm
10:20 AM 80.9°F27.2°C 70.2°F21.2°C 70% 8.0 mph NW12.9 kmh NW 15.0 mph24.1 kmh 29.85 in1010.8 mb 0.00 in0.0 mm 0.00 in0.0 mm 0.00 in0.0 mm
10:15 AM 80.7°F27.1°C 70.4°F21.3°C 71% 6.0 mph NW9.7 kmh NW 13.0 mph20.9 kmh 29.85 in1010.8 mb 0.00 in0.0 mm 0.00 in0.0 mm 0.00 in0.0 mm
10:10 AM 80.4°F26.9°C 70.9°F21.6°C 73% 6.0 mph WNW9.7 kmh WNW 12.0 mph19.3 kmh 29.84 in1010.5 mb 0.00 in0.0 mm 0.00 in0.0 mm 0.00 in0.0 mm
10:05 AM 80.0°F26.7°C 70.6°F21.4°C 73% 6.0 mph NW9.7 kmh NW 14.0 mph22.5 kmh 29.85 in1010.8 mb 0.00 in0.0 mm 0.00 in0.0 mm 0.00 in0.0 mm
10:00 AM 79.5°F26.4°C 70.9°F21.6°C 75% 6.0 mph NW9.7 kmh NW 14.0 mph22.5 kmh 29.85 in1010.8 mb 0.00 in0.0 mm 0.00 in0.0 mm 0.00 in0.0 mm
09:55 AM 79.2°F26.2°C 70.6°F21.4°C 75% 7.0 mph WNW11.3 kmh WNW 15.0 mph24.1 kmh 29.85 in1010.8 mb 0.00 in0.0 mm 0.00 in0.0 mm 0.00 in0.0 mm
09:50 AM 79.2°F26.2°C 71.0°F21.7°C 76% 6.0 mph WNW9.7 kmh WNW 15.0 mph24.1 kmh 29.85 in1010.8 mb 0.00 in0.0 mm 0.00 in0.0 mm 0.00 in0.0 mm
09:45 AM 79.1°F26.2°C 71.3°F21.8°C 77% 6.0 mph NW9.7 kmh NW 13.0 mph20.9 kmh 29.85 in1010.8 mb 0.00 in0.0 mm 0.00 in0.0 mm 0.00 in0.0 mm
09:40 AM 79.1°F26.2°C 72.0°F22.2°C 79% 7.0 mph WNW11.3 kmh WNW 16.0 mph25.7 kmh 29.84 in1010.5 mb 0.00 in0.0 mm 0.00 in0.0 mm 0.00 in0.0 mm
09:35 AM 78.9°F26.1°C 71.8°F22.1°C 79% 5.0 mph WNW8.0 kmh WNW 16.0 mph25.7 kmh 29.84 in1010.5 mb 0.00 in0.0 mm 0.00 in0.0 mm 0.00 in0.0 mm
09:30 AM 78.9°F26.1°C 73.3°F22.9°C 83% 3.0 mph WNW4.8 kmh WNW 10.0 mph16.1 kmh 29.84 in1010.5 mb 0.00 in0.0 mm 0.00 in0.0 mm 0.00 in0.0 mm
09:25 AM 78.7°F25.9°C 74.2°F23.4°C 86% 4.0 mph W6.4 kmh W 10.0 mph16.1 kmh 29.84 in1010.5 mb 0.00 in0.0 mm 0.00 in0.0 mm 0.00 in0.0 mm
09:20 AM 78.6°F25.9°C 74.4°F23.6°C 87% 4.0 mph W6.4 kmh W 7.0 mph11.3 kmh 29.84 in1010.5 mb 0.00 in0.0 mm 0.00 in0.0 mm 0.00 in0.0 mm
09:15 AM 78.5°F25.8°C 74.6°F23.7°C 88% 4.0 mph W6.4 kmh W 8.0 mph12.9 kmh 29.83 in1010.2 mb 0.00 in0.0 mm 0.00 in0.0 mm 0.00 in0.0 mm
09:10 AM 78.4°F25.8°C 74.5°F23.6°C 88% 4.0 mph W6.4 kmh W 8.0 mph12.9 kmh 29.83 in1010.2 mb 0.00 in0.0 mm 0.00 in0.0 mm 0.00 in0.0 mm
09:05 AM 78.3°F25.7°C 74.8°F23.8°C 89% 4.0 mph W6.4 kmh W 8.0 mph12.9 kmh 29.83 in1010.2 mb 0.00 in0.0 mm 0.00 in0.0 mm 0.00 in0.0 mm
09:00 AM 78.2°F25.7°C 74.7°F23.7°C 89% 3.0 mph W4.8 kmh W 7.0 mph11.3 kmh 29.83 in1010.2 mb 0.00 in0.0 mm 0.00 in0.0 mm 0.00 in0.0 mm
08:55 AM 78.1°F25.6°C 74.6°F23.7°C 89% 2.0 mph W3.2 kmh W 7.0 mph11.3 kmh 29.82 in1009.8 mb 0.00 in0.0 mm 0.00 in0.0 mm 0.00 in0.0 mm
08:50 AM 77.9°F25.5°C 74.7°F23.7°C 90% 2.0 mph W3.2 kmh W 5.0 mph8.0 kmh 29.82 in1009.8 mb 0.00 in0.0 mm 0.00 in0.0 mm 0.00 in0.0 mm
08:45 AM 77.8°F25.4°C 74.6°F23.7°C 90% 2.0 mph W3.2 kmh W 6.0 mph9.7 kmh 29.82 in1009.8 mb 0.00 in0.0 mm 0.00 in0.0 mm 0.00 in0.0 mm
08:40 AM 77.6°F25.3°C 74.4°F23.6°C 90% 2.0 mph W3.2 kmh W 6.0 mph9.7 kmh 29.82 in1009.8 mb 0.00 in0.0 mm 0.00 in0.0 mm 0.00 in0.0 mm
08:35 AM 77.6°F25.3°C 74.8°F23.8°C 91% 2.0 mph W3.2 kmh W 6.0 mph9.7 kmh 29.82 in1009.8 mb 0.00 in0.0 mm 0.00 in0.0 mm 0.00 in0.0 mm
08:30 AM 77.5°F25.3°C 74.7°F23.7°C 91% 3.0 mph W4.8 kmh W 6.0 mph9.7 kmh 29.82 in1009.8 mb 0.00 in0.0 mm 0.00 in0.0 mm 0.00 in0.0 mm
08:25 AM 77.5°F25.3°C 74.7°F23.7°C 91% 3.0 mph W4.8 kmh W 8.0 mph12.9 kmh 29.82 in1009.8 mb 0.00 in0.0 mm 0.00 in0.0 mm 0.00 in0.0 mm
08:20 AM 77.5°F25.3°C 74.7°F23.7°C 91% 3.0 mph W4.8 kmh W 8.0 mph12.9 kmh 29.82 in1009.8 mb 0.00 in0.0 mm 0.00 in0.0 mm 0.00 in0.0 mm
08:15 AM 77.4°F25.2°C 74.6°F23.7°C 91% 3.0 mph W4.8 kmh W 7.0 mph11.3 kmh 29.82 in1009.8 mb 0.00 in0.0 mm 0.00 in0.0 mm 0.00 in0.0 mm
08:10 AM 77.3°F25.2°C 74.5°F23.6°C 91% 3.0 mph W4.8 kmh W 5.0 mph8.0 kmh 29.81 in1009.5 mb 0.00 in0.0 mm 0.00 in0.0 mm 0.00 in0.0 mm
08:05 AM 77.2°F25.1°C 74.4°F23.6°C 91% 3.0 mph W4.8 kmh W 7.0 mph11.3 kmh 29.80 in1009.1 mb 0.00 in0.0 mm 0.00 in0.0 mm 0.00 in0.0 mm
08:00 AM 77.0°F25.0°C 74.5°F23.6°C 92% 3.0 mph W4.8 kmh W 7.0 mph11.3 kmh 29.80 in1009.1 mb 0.00 in0.0 mm 0.00 in0.0 mm 0.00 in0.0 mm
07:55 AM 76.9°F24.9°C 74.4°F23.6°C 92% 3.0 mph W4.8 kmh W 6.0 mph9.7 kmh 29.80 in1009.1 mb 0.00 in0.0 mm 0.00 in0.0 mm 0.00 in0.0 mm
07:50 AM 76.8°F24.9°C 74.3°F23.5°C 92% 3.0 mph W4.8 kmh W 5.0 mph8.0 kmh 29.80 in1009.1 mb 0.00 in0.0 mm 0.00 in0.0 mm 0.00 in0.0 mm
07:45 AM 76.7°F24.8°C 74.2°F23.4°C 92% 2.0 mph W3.2 kmh W 5.0 mph8.0 kmh 29.79 in1008.8 mb 0.00 in0.0 mm 0.00 in0.0 mm 0.00 in0.0 mm
07:40 AM 76.6°F24.8°C 74.1°F23.4°C 92% 2.0 mph W3.2 kmh W 5.0 mph8.0 kmh 29.79 in1008.8 mb 0.00 in0.0 mm 0.00 in0.0 mm 0.00 in0.0 mm
07:35 AM 76.5°F24.7°C 74.0°F23.3°C 92% 2.0 mph W3.2 kmh W 5.0 mph8.0 kmh 29.79 in1008.8 mb 0.00 in0.0 mm 0.00 in0.0 mm 0.00 in0.0 mm
07:30 AM 76.5°F24.7°C 74.3°F23.5°C 93% 2.0 mph W3.2 kmh W 4.0 mph6.4 kmh 29.78 in1008.5 mb 0.00 in0.0 mm 0.00 in0.0 mm 0.00 in0.0 mm
07:25 AM 76.4°F24.7°C 74.2°F23.4°C 93% 1.0 mph W1.6 kmh W 3.0 mph4.8 kmh 29.78 in1008.5 mb 0.00 in0.0 mm 0.00 in0.0 mm 0.00 in0.0 mm
07:20 AM 76.4°F24.7°C 74.2°F23.4°C 93% 1.0 mph W1.6 kmh W 3.0 mph4.8 kmh 29.77 in1008.1 mb 0.00 in0.0 mm 0.00 in0.0 mm 0.00 in0.0 mm
07:15 AM 76.3°F24.6°C 74.1°F23.4°C 93% 1.0 mph W1.6 kmh W 3.0 mph4.8 kmh 29.77 in1008.1 mb 0.00 in0.0 mm 0.00 in0.0 mm 0.00 in0.0 mm
07:10 AM 76.3°F24.6°C 73.8°F23.2°C 92% 2.0 mph W3.2 kmh W 4.0 mph6.4 kmh 29.77 in1008.1 mb 0.00 in0.0 mm 0.00 in0.0 mm 0.00 in0.0 mm
07:05 AM 76.2°F24.6°C 73.7°F23.2°C 92% 2.0 mph W3.2 kmh W 4.0 mph6.4 kmh 29.77 in1008.1 mb 0.00 in0.0 mm 0.00 in0.0 mm 0.00 in0.0 mm
07:00 AM 76.2°F24.6°C 73.7°F23.2°C 92% 2.0 mph W3.2 kmh W 5.0 mph8.0 kmh 29.77 in1008.1 mb 0.00 in0.0 mm 0.00 in0.0 mm 0.00 in0.0 mm
06:55 AM 76.2°F24.6°C 73.7°F23.2°C 92% 2.0 mph W3.2 kmh W 5.0 mph8.0 kmh 29.77 in1008.1 mb 0.00 in0.0 mm 0.00 in0.0 mm 0.00 in0.0 mm
06:50 AM 76.2°F24.6°C 73.7°F23.2°C 92% 2.0 mph W3.2 kmh W 4.0 mph6.4 kmh 29.77 in1008.1 mb 0.00 in0.0 mm 0.00 in0.0 mm 0.00 in0.0 mm
06:45 AM 76.2°F24.6°C 73.7°F23.2°C 92% 2.0 mph W3.2 kmh W 7.0 mph11.3 kmh 29.77 in1008.1 mb 0.00 in0.0 mm 0.00 in0.0 mm 0.00 in0.0 mm
06:40 AM 76.2°F24.6°C 74.0°F23.3°C 93% 3.0 mph WNW4.8 kmh WNW 9.0 mph14.5 kmh 29.76 in1007.8 mb 0.00 in0.0 mm 0.00 in0.0 mm 0.00 in0.0 mm
06:35 AM 76.2°F24.6°C 74.0°F23.3°C 93% 2.0 mph NW3.2 kmh NW 9.0 mph14.5 kmh 29.76 in1007.8 mb 0.00 in0.0 mm 0.00 in0.0 mm 0.00 in0.0 mm
06:30 AM 76.2°F24.6°C 74.0°F23.3°C 93% 2.0 mph NW3.2 kmh NW 4.0 mph6.4 kmh 29.76 in1007.8 mb 0.00 in0.0 mm 0.00 in0.0 mm 0.00 in0.0 mm
06:25 AM 76.1°F24.5°C 73.9°F23.3°C 93% 1.0 mph NW1.6 kmh NW 4.0 mph6.4 kmh 29.76 in1007.8 mb 0.00 in0.0 mm 0.00 in0.0 mm 0.00 in0.0 mm
06:20 AM 76.1°F24.5°C 73.9°F23.3°C 93% 2.0 mph NW3.2 kmh NW 6.0 mph9.7 kmh 29.76 in1007.8 mb 0.00 in0.0 mm 0.00 in0.0 mm 0.00 in0.0 mm
06:15 AM 76.1°F24.5°C 73.9°F23.3°C 93% 2.0 mph W3.2 kmh W 6.0 mph9.7 kmh 29.76 in1007.8 mb 0.00 in0.0 mm 0.00 in0.0 mm 0.00 in0.0 mm
06:10 AM 76.1°F24.5°C 73.9°F23.3°C 93% 2.0 mph W3.2 kmh W 5.0 mph8.0 kmh 29.76 in1007.8 mb 0.00 in0.0 mm 0.00 in0.0 mm 0.00 in0.0 mm
06:05 AM 76.1°F24.5°C 73.9°F23.3°C 93% 2.0 mph WNW3.2 kmh WNW 5.0 mph8.0 kmh 29.76 in1007.8 mb 0.00 in0.0 mm 0.00 in0.0 mm 0.00 in0.0 mm
06:00 AM 76.1°F24.5°C 73.9°F23.3°C 93% 2.0 mph WNW3.2 kmh WNW 5.0 mph8.0 kmh 29.75 in1007.5 mb 0.00 in0.0 mm 0.00 in0.0 mm 0.00 in0.0 mm
05:55 AM 76.1°F24.5°C 73.9°F23.3°C 93% 2.0 mph WNW3.2 kmh WNW 4.0 mph6.4 kmh 29.75 in1007.5 mb 0.00 in0.0 mm 0.00 in0.0 mm 0.00 in0.0 mm
05:50 AM 76.1°F24.5°C 73.9°F23.3°C 93% 2.0 mph WNW3.2 kmh WNW 4.0 mph6.4 kmh 29.75 in1007.5 mb 0.00 in0.0 mm 0.00 in0.0 mm 0.00 in0.0 mm
05:45 AM 76.2°F24.6°C 74.0°F23.3°C 93% 2.0 mph WNW3.2 kmh WNW 5.0 mph8.0 kmh 29.75 in1007.5 mb 0.00 in0.0 mm 0.00 in0.0 mm 0.00 in0.0 mm
05:40 AM 76.2°F24.6°C 74.0°F23.3°C 93% 1.0 mph WNW1.6 kmh WNW 5.0 mph8.0 kmh 29.75 in1007.5 mb 0.00 in0.0 mm 0.00 in0.0 mm 0.00 in0.0 mm
05:35 AM 76.2°F24.6°C 74.0°F23.3°C 93% 1.0 mph W1.6 kmh W 6.0 mph9.7 kmh 29.75 in1007.5 mb 0.00 in0.0 mm 0.00 in0.0 mm 0.00 in0.0 mm
05:30 AM 76.3°F24.6°C 74.1°F23.4°C 93% 2.0 mph W3.2 kmh W 6.0 mph9.7 kmh 29.75 in1007.5 mb 0.00 in0.0 mm 0.00 in0.0 mm 0.00 in0.0 mm
05:25 AM 76.3°F24.6°C 74.1°F23.4°C 93% 2.0 mph W3.2 kmh W 4.0 mph6.4 kmh 29.75 in1007.5 mb 0.00 in0.0 mm 0.00 in0.0 mm 0.00 in0.0 mm
05:20 AM 76.3°F24.6°C 74.1°F23.4°C 93% 2.0 mph W3.2 kmh W 5.0 mph8.0 kmh 29.75 in1007.5 mb 0.00 in0.0 mm 0.00 in0.0 mm 0.00 in0.0 mm
05:15 AM 76.3°F24.6°C 74.1°F23.4°C 93% 2.0 mph W3.2 kmh W 5.0 mph8.0 kmh 29.75 in1007.5 mb 0.00 in0.0 mm 0.00 in0.0 mm 0.00 in0.0 mm
05:10 AM 76.2°F24.6°C 74.0°F23.3°C 93% 2.0 mph W3.2 kmh W 6.0 mph9.7 kmh 29.75 in1007.5 mb 0.00 in0.0 mm 0.00 in0.0 mm 0.00 in0.0 mm
05:05 AM 76.2°F24.6°C 74.0°F23.3°C 93% 2.0 mph W3.2 kmh W 6.0 mph9.7 kmh 29.74 in1007.1 mb 0.00 in0.0 mm 0.00 in0.0 mm 0.00 in0.0 mm
05:00 AM 76.2°F24.6°C 74.0°F23.3°C 93% 2.0 mph WSW3.2 kmh WSW 5.0 mph8.0 kmh 29.74 in1007.1 mb 0.00 in0.0 mm 0.00 in0.0 mm 0.00 in0.0 mm
04:55 AM 76.2°F24.6°C 73.7°F23.2°C 92% 2.0 mph WSW3.2 kmh WSW 5.0 mph8.0 kmh 29.74 in1007.1 mb 0.00 in0.0 mm 0.00 in0.0 mm 0.00 in0.0 mm
04:50 AM 76.3°F24.6°C 73.8°F23.2°C 92% 2.0 mph WSW3.2 kmh WSW 5.0 mph8.0 kmh 29.74 in1007.1 mb 0.00 in0.0 mm 0.00 in0.0 mm 0.00 in0.0 mm
04:45 AM 76.3°F24.6°C 74.1°F23.4°C 93% 2.0 mph WSW3.2 kmh WSW 5.0 mph8.0 kmh 29.73 in1006.8 mb 0.00 in0.0 mm 0.00 in0.0 mm 0.00 in0.0 mm
04:40 AM 76.4°F24.7°C 74.2°F23.4°C 93% 2.0 mph WSW3.2 kmh WSW 5.0 mph8.0 kmh 29.73 in1006.8 mb 0.00 in0.0 mm 0.00 in0.0 mm 0.00 in0.0 mm
04:35 AM 76.4°F24.7°C 74.2°F23.4°C 93% 2.0 mph W3.2 kmh W 5.0 mph8.0 kmh 29.73 in1006.8 mb 0.00 in0.0 mm 0.00 in0.0 mm 0.00 in0.0 mm
04:30 AM 76.4°F24.7°C 74.2°F23.4°C 93% 3.0 mph W4.8 kmh W 7.0 mph11.3 kmh 29.73 in1006.8 mb 0.00 in0.0 mm 0.00 in0.0 mm 0.00 in0.0 mm
04:25 AM 76.4°F24.7°C 74.2°F23.4°C 93% 3.0 mph W4.8 kmh W 8.0 mph12.9 kmh 29.73 in1006.8 mb 0.00 in0.0 mm 0.00 in0.0 mm 0.00 in0.0 mm
04:20 AM 76.4°F24.7°C 73.9°F23.3°C 92% 3.0 mph W4.8 kmh W 8.0 mph12.9 kmh 29.73 in1006.8 mb 0.00 in0.0 mm 0.00 in0.0 mm 0.00 in0.0 mm
04:15 AM 76.4°F24.7°C 73.9°F23.3°C 92% 2.0 mph WSW3.2 kmh WSW 7.0 mph11.3 kmh 29.73 in1006.8 mb 0.00 in0.0 mm 0.00 in0.0 mm 0.00 in0.0 mm
04:10 AM 76.5°F24.7°C 74.0°F23.3°C 92% 3.0 mph WSW4.8 kmh WSW 10.0 mph16.1 kmh 29.72 in1006.4 mb 0.00 in0.0 mm 0.00 in0.0 mm 0.00 in0.0 mm
04:05 AM 76.4°F24.7°C 74.2°F23.4°C 93% 3.0 mph WSW4.8 kmh WSW 10.0 mph16.1 kmh 29.72 in1006.4 mb 0.00 in0.0 mm 0.00 in0.0 mm 0.00 in0.0 mm
04:00 AM 76.4°F24.7°C 73.9°F23.3°C 92% 3.0 mph WSW4.8 kmh WSW 7.0 mph11.3 kmh 29.73 in1006.8 mb 0.00 in0.0 mm 0.00 in0.0 mm 0.00 in0.0 mm
03:55 AM 76.4°F24.7°C 73.9°F23.3°C 92% 2.0 mph WSW3.2 kmh WSW 7.0 mph11.3 kmh 29.72 in1006.4 mb 0.00 in0.0 mm 0.00 in0.0 mm 0.00 in0.0 mm
03:50 AM 76.4°F24.7°C 73.9°F23.3°C 92% 2.0 mph WSW3.2 kmh WSW 7.0 mph11.3 kmh 29.72 in1006.4 mb 0.00 in0.0 mm 0.00 in0.0 mm 0.00 in0.0 mm
03:45 AM 76.4°F24.7°C 73.9°F23.3°C 92% 3.0 mph WSW4.8 kmh WSW 8.0 mph12.9 kmh 29.72 in1006.4 mb 0.00 in0.0 mm 0.00 in0.0 mm 0.00 in0.0 mm
03:40 AM 76.4°F24.7°C 73.9°F23.3°C 92% 2.0 mph WSW3.2 kmh WSW 8.0 mph12.9 kmh 29.72 in1006.4 mb 0.00 in0.0 mm 0.00 in0.0 mm 0.00 in0.0 mm
03:35 AM 76.4°F24.7°C 73.9°F23.3°C 92% 2.0 mph SW3.2 kmh SW 6.0 mph9.7 kmh 29.71 in1006.1 mb 0.00 in0.0 mm 0.00 in0.0 mm 0.00 in0.0 mm
03:30 AM 76.4°F24.7°C 73.9°F23.3°C 92% 3.0 mph SW4.8 kmh SW 7.0 mph11.3 kmh 29.71 in1006.1 mb 0.00 in0.0 mm 0.00 in0.0 mm 0.00 in0.0 mm
03:25 AM 76.4°F24.7°C 73.9°F23.3°C 92% 3.0 mph SW4.8 kmh SW 7.0 mph11.3 kmh 29.71 in1006.1 mb 0.00 in0.0 mm 0.00 in0.0 mm 0.00 in0.0 mm
03:20 AM 76.4°F24.7°C 73.9°F23.3°C 92% 2.0 mph WSW3.2 kmh WSW 7.0 mph11.3 kmh 29.72 in1006.4 mb 0.00 in0.0 mm 0.00 in0.0 mm 0.00 in0.0 mm
03:15 AM 76.4°F24.7°C 73.9°F23.3°C 92% 2.0 mph WSW3.2 kmh WSW 7.0 mph11.3 kmh 29.72 in1006.4 mb 0.00 in0.0 mm 0.00 in0.0 mm 0.00 in0.0 mm
03:10 AM 76.4°F24.7°C 73.9°F23.3°C 92% 2.0 mph SW3.2 kmh SW 6.0 mph9.7 kmh 29.72 in1006.4 mb 0.00 in0.0 mm 0.00 in0.0 mm 0.00 in0.0 mm
03:05 AM 76.4°F24.7°C 73.9°F23.3°C 92% 3.0 mph SW4.8 kmh SW 6.0 mph9.7 kmh 29.72 in1006.4 mb 0.00 in0.0 mm 0.00 in0.0 mm 0.00 in0.0 mm
03:00 AM 76.5°F24.7°C 74.0°F23.3°C 92% 3.0 mph WSW4.8 kmh WSW 7.0 mph11.3 kmh 29.72 in1006.4 mb 0.00 in0.0 mm 0.00 in0.0 mm 0.00 in0.0 mm
02:55 AM 76.5°F24.7°C 74.0°F23.3°C 92% 2.0 mph SW3.2 kmh SW 7.0 mph11.3 kmh 29.72 in1006.4 mb 0.00 in0.0 mm 0.00 in0.0 mm 0.00 in0.0 mm
02:50 AM 76.5°F24.7°C 74.0°F23.3°C 92% 2.0 mph SW3.2 kmh SW 5.0 mph8.0 kmh 29.72 in1006.4 mb 0.00 in0.0 mm 0.00 in0.0 mm 0.00 in0.0 mm
02:45 AM 76.6°F24.8°C 73.8°F23.2°C 91% 2.0 mph SW3.2 kmh SW 5.0 mph8.0 kmh 29.72 in1006.4 mb 0.00 in0.0 mm 0.00 in0.0 mm 0.00 in0.0 mm
02:40 AM 76.6°F24.8°C 73.8°F23.2°C 91% 2.0 mph SW3.2 kmh SW 5.0 mph8.0 kmh 29.72 in1006.4 mb 0.00 in0.0 mm 0.00 in0.0 mm 0.00 in0.0 mm
02:35 AM 76.7°F24.8°C 73.9°F23.3°C 91% 2.0 mph SW3.2 kmh SW 5.0 mph8.0 kmh 29.72 in1006.4 mb 0.00 in0.0 mm 0.00 in0.0 mm 0.00 in0.0 mm
02:30 AM 76.8°F24.9°C 74.0°F23.3°C 91% 2.0 mph SW3.2 kmh SW 4.0 mph6.4 kmh 29.72 in1006.4 mb 0.00 in0.0 mm 0.00 in0.0 mm 0.00 in0.0 mm
02:25 AM 76.9°F24.9°C 73.7°F23.2°C 90% 2.0 mph SW3.2 kmh SW 6.0 mph9.7 kmh 29.72 in1006.4 mb 0.00 in0.0 mm 0.00 in0.0 mm 0.00 in0.0 mm
02:20 AM 77.0°F25.0°C 73.8°F23.2°C 90% 2.0 mph SW3.2 kmh SW 6.0 mph9.7 kmh 29.72 in1006.4 mb 0.00 in0.0 mm 0.00 in0.0 mm 0.00 in0.0 mm
02:15 AM 77.1°F25.1°C 73.9°F23.3°C 90% 3.0 mph SW4.8 kmh SW 7.0 mph11.3 kmh 29.72 in1006.4 mb 0.00 in0.0 mm 0.00 in0.0 mm 0.00 in0.0 mm
02:10 AM 77.2°F25.1°C 74.0°F23.3°C 90% 3.0 mph SW4.8 kmh SW 7.0 mph11.3 kmh 29.72 in1006.4 mb 0.00 in0.0 mm 0.00 in0.0 mm 0.00 in0.0 mm
02:05 AM 77.3°F25.2°C 74.1°F23.4°C 90% 3.0 mph SW4.8 kmh SW 7.0 mph11.3 kmh 29.72 in1006.4 mb 0.00 in0.0 mm 0.00 in0.0 mm 0.00 in0.0 mm
02:00 AM 77.4°F25.2°C 74.2°F23.4°C 90% 3.0 mph SW4.8 kmh SW 7.0 mph11.3 kmh 29.72 in1006.4 mb 0.00 in0.0 mm 0.00 in0.0 mm 0.00 in0.0 mm
01:55 AM 77.5°F25.3°C 74.3°F23.5°C 90% 3.0 mph SW4.8 kmh SW 7.0 mph11.3 kmh 29.72 in1006.4 mb 0.00 in0.0 mm 0.00 in0.0 mm 0.00 in0.0 mm
01:50 AM 77.6°F25.3°C 74.4°F23.6°C 90% 3.0 mph SW4.8 kmh SW 7.0 mph11.3 kmh 29.72 in1006.4 mb 0.00 in0.0 mm 0.00 in0.0 mm 0.00 in0.0 mm
01:45 AM 77.6°F25.3°C 74.1°F23.4°C 89% 3.0 mph WSW4.8 kmh WSW 8.0 mph12.9 kmh 29.73 in1006.8 mb 0.00 in0.0 mm 0.00 in0.0 mm 0.00 in0.0 mm
01:40 AM 77.7°F25.4°C 74.2°F23.4°C 89% 3.0 mph SW4.8 kmh SW 9.0 mph14.5 kmh 29.73 in1006.8 mb 0.00 in0.0 mm 0.00 in0.0 mm 0.00 in0.0 mm
01:35 AM 77.7°F25.4°C 74.2°F23.4°C 89% 3.0 mph SW4.8 kmh SW 9.0 mph14.5 kmh 29.73 in1006.8 mb 0.00 in0.0 mm 0.00 in0.0 mm 0.00 in0.0 mm
01:30 AM 77.7°F25.4°C 74.2°F23.4°C 89% 3.0 mph WSW4.8 kmh WSW 7.0 mph11.3 kmh 29.73 in1006.8 mb 0.00 in0.0 mm 0.00 in0.0 mm 0.00 in0.0 mm
01:25 AM 77.7°F25.4°C 74.2°F23.4°C 89% 3.0 mph WSW4.8 kmh WSW 7.0 mph11.3 kmh 29.74 in1007.1 mb 0.00 in0.0 mm 0.00 in0.0 mm 0.00 in0.0 mm
01:20 AM 77.7°F25.4°C 74.2°F23.4°C 89% 3.0 mph WSW4.8 kmh WSW 6.0 mph9.7 kmh 29.74 in1007.1 mb 0.00 in0.0 mm 0.00 in0.0 mm 0.00 in0.0 mm
01:15 AM 77.7°F25.4°C 74.2°F23.4°C 89% 3.0 mph WSW4.8 kmh WSW 7.0 mph11.3 kmh 29.74 in1007.1 mb 0.00 in0.0 mm 0.00 in0.0 mm 0.00 in0.0 mm
01:10 AM 77.8°F25.4°C 74.3°F23.5°C 89% 3.0 mph SW4.8 kmh SW 7.0 mph11.3 kmh 29.74 in1007.1 mb 0.00 in0.0 mm 0.00 in0.0 mm 0.00 in0.0 mm
01:05 AM 77.8°F25.4°C 74.3°F23.5°C 89% 3.0 mph SW4.8 kmh SW 7.0 mph11.3 kmh 29.74 in1007.1 mb 0.00 in0.0 mm 0.00 in0.0 mm 0.00 in0.0 mm
01:00 AM 77.8°F25.4°C 74.3°F23.5°C 89% 3.0 mph SW4.8 kmh SW 6.0 mph9.7 kmh 29.75 in1007.5 mb 0.00 in0.0 mm 0.00 in0.0 mm 0.00 in0.0 mm
12:55 AM 77.9°F25.5°C 74.1°F23.4°C 88% 3.0 mph WSW4.8 kmh WSW 8.0 mph12.9 kmh 29.75 in1007.5 mb 0.00 in0.0 mm 0.00 in0.0 mm 0.00 in0.0 mm
12:50 AM 78.0°F25.6°C 74.2°F23.4°C 88% 3.0 mph WSW4.8 kmh WSW 8.0 mph12.9 kmh 29.75 in1007.5 mb 0.00 in0.0 mm 0.00 in0.0 mm 0.00 in0.0 mm
12:45 AM 78.1°F25.6°C 74.3°F23.5°C 88% 4.0 mph SW6.4 kmh SW 8.0 mph12.9 kmh 29.75 in1007.5 mb 0.00 in0.0 mm 0.00 in0.0 mm 0.00 in0.0 mm
12:40 AM 78.2°F25.7°C 74.4°F23.6°C 88% 4.0 mph SW6.4 kmh SW 8.0 mph12.9 kmh 29.75 in1007.5 mb 0.00 in0.0 mm 0.00 in0.0 mm 0.00 in0.0 mm
12:35 AM 78.3°F25.7°C 74.5°F23.6°C 88% 3.0 mph WSW4.8 kmh WSW 8.0 mph12.9 kmh 29.76 in1007.8 mb 0.00 in0.0 mm 0.00 in0.0 mm 0.00 in0.0 mm
12:30 AM 78.3°F25.7°C 74.5°F23.6°C 88% 3.0 mph WSW4.8 kmh WSW 8.0 mph12.9 kmh 29.76 in1007.8 mb 0.00 in0.0 mm 0.00 in0.0 mm 0.00 in0.0 mm
12:25 AM 78.4°F25.8°C 74.2°F23.4°C 87% 3.0 mph WSW4.8 kmh WSW 8.0 mph12.9 kmh 29.76 in1007.8 mb 0.00 in0.0 mm 0.00 in0.0 mm 0.00 in0.0 mm
12:20 AM 78.5°F25.8°C 74.3°F23.5°C 87% 3.0 mph WSW4.8 kmh WSW 7.0 mph11.3 kmh 29.76 in1007.8 mb 0.00 in0.0 mm 0.00 in0.0 mm 0.00 in0.0 mm
12:15 AM 78.6°F25.9°C 74.4°F23.6°C 87% 3.0 mph WSW4.8 kmh WSW 7.0 mph11.3 kmh 29.76 in1007.8 mb 0.00 in0.0 mm 0.00 in0.0 mm 0.00 in0.0 mm
12:10 AM 78.7°F25.9°C 74.5°F23.6°C 87% 3.0 mph WSW4.8 kmh WSW 8.0 mph12.9 kmh 29.76 in1007.8 mb 0.00 in0.0 mm 0.00 in0.0 mm 0.00 in0.0 mm
12:05 AM 78.9°F26.1°C 74.4°F23.6°C 86% 4.0 mph WSW6.4 kmh WSW 9.0 mph14.5 kmh 29.76 in1007.8 mb 0.00 in0.0 mm 0.00 in0.0 mm 0.00 in0.0 mm
12:00 AM 79.0°F26.1°C 74.5°F23.6°C 86% 3.0 mph WSW4.8 kmh WSW 9.0 mph14.5 kmh 29.76 in1007.8 mb 0.00 in0.0 mm 0.00 in0.0 mm 0.00 in0.0 mm